Perdue Hill, Alabama
Current Conditions -  °F | °C
As of 11:53 AM on Thursday 29 Jan 2015 (Local Time) from KGZH Reporting Station
Clear Clear  
Wind Chill: 18°   Ceiling: Unl
Heat Index: 18°   Visibility: 10mi
Dew Point:   Wind: 13mph
Humidity: 56%   Direction: 190°S
Pressure: 30.27"   Gusts: NA
Location:  31.51°N, 87.49°W
Report Text: KGZH 291753Z AUTO 19011KT 10SM CLR 18/09 A3027 RMK AO2 SLP248 60000 T01780089 10183 20000 58014
Loading
Personal Weather Stations






























Interactive Weather Map New forecast layout! Learn more

10-Day Weather Forecast

Advertisements
Track Severe Weather on mobile